Terminal Aerodrome Forecast
Issued by NWS Sioux Falls, SD

Home | Current Version | Previous Version | Graphics & Text | Print | Product List | Glossary Off
Versions: 1 2 3 4 5 6 7 8 9 10 11 12 13 14 15 16 17 18

000
FTUS43 KFSD 270539
TAFFSD
TAF
KFSD 270539Z 2706/2806 35010KT P6SM SCT070
     FM270800 VRB04KT P6SM SKC
     FM271700 13010KT P6SM BKN100
     FM272000 14011KT P6SM OVC040
     FM280100 14013KT P6SM OVC040=

USA.gov is the U.S. government's official web portal to all federal, state and local government web resources and services.